createdAt,value
2023-05-01T00:01:19.374Z,7.77
2023-05-01T00:03:48.647Z,7.07
2023-05-01T00:06:16.593Z,6.77
2023-05-01T00:08:44.380Z,7.57
2023-05-01T00:11:12.569Z,7.67
2023-05-01T00:13:40.318Z,8.00
2023-05-01T00:16:12.822Z,8.23
2023-05-01T00:18:40.573Z,7.67
2023-05-01T00:21:08.908Z,8.80
2023-05-01T00:23:36.691Z,8.30
2023-05-01T00:26:08.026Z,9.20
2023-05-01T00:28:36.492Z,9.23
2023-05-01T00:31:04.163Z,8.53
2023-05-01T00:33:31.840Z,8.30
2023-05-01T00:35:59.901Z,8.87
2023-05-01T00:38:27.635Z,8.87
2023-05-01T00:40:55.183Z,8.90
2023-05-01T00:43:22.976Z,9.73
2023-05-01T00:45:50.685Z,8.67
2023-05-01T00:48:18.627Z,9.10
2023-05-01T00:50:47.688Z,9.50
2023-05-01T00:53:15.481Z,9.60
2023-05-01T00:55:43.430Z,9.17
2023-05-01T00:58:14.284Z,8.43
2023-05-01T01:00:42.147Z,9.07
2023-05-01T01:03:10.366Z,9.33
2023-05-01T01:06:13.643Z,9.60
2023-05-01T01:08:49.911Z,9.87
2023-05-01T01:11:34.696Z,9.00
2023-05-01T01:14:19.473Z,9.37
2023-05-01T01:17:10.453Z,9.90
2023-05-01T01:20:27.882Z,10.07
2023-05-01T01:23:27.261Z,9.83
2023-05-01T01:26:23.458Z,10.27
2023-05-01T01:29:30.526Z,10.60
2023-05-01T01:32:39.421Z,10.17
2023-05-01T01:35:14.422Z,9.87
2023-05-01T01:38:06.881Z,9.97
2023-05-01T01:40:50.655Z,10.30
2023-05-01T01:43:20.327Z,10.40
2023-05-01T01:45:57.654Z,10.07
2023-05-01T01:48:43.394Z,10.47
2023-05-01T01:51:18.150Z,11.03
2023-05-01T01:53:53.779Z,10.50
2023-05-01T01:56:22.887Z,10.80
2023-05-01T01:58:52.782Z,11.13
2023-05-01T02:01:24.112Z,10.27
2023-05-01T02:03:53.465Z,10.43
2023-05-01T02:06:23.159Z,10.47
2023-05-01T02:08:51.604Z,9.80
2023-05-01T02:11:22.914Z,10.03
2023-05-01T02:13:52.516Z,9.40
2023-05-01T02:16:23.016Z,9.73
2023-05-01T02:18:54.114Z,9.73
2023-05-01T02:21:23.437Z,8.83
2023-05-01T02:23:51.211Z,9.33
2023-05-01T02:26:25.163Z,9.73
2023-05-01T02:28:53.439Z,9.00
2023-05-01T02:31:23.380Z,8.50
2023-05-01T02:33:51.080Z,8.90
2023-05-01T02:36:18.759Z,8.20
2023-05-01T02:38:47.234Z,8.50
2023-05-01T02:41:16.724Z,8.27
2023-05-01T02:43:47.272Z,8.80
2023-05-01T02:46:18.434Z,8.47
2023-05-01T02:48:46.763Z,8.43
2023-05-01T02:51:14.663Z,8.40
2023-05-01T02:53:42.769Z,7.57
2023-05-01T02:56:19.310Z,7.33
2023-05-01T02:58:49.545Z,7.90
2023-05-01T03:01:17.368Z,7.37
2023-05-01T03:03:45.454Z,8.20
2023-05-01T03:06:16.497Z,7.50
2023-05-01T03:08:44.331Z,7.87
2023-05-01T03:11:11.866Z,7.30
2023-05-01T03:13:39.744Z,8.27
2023-05-01T03:16:07.589Z,8.47
2023-05-01T03:18:35.260Z,7.83
2023-05-01T03:21:02.858Z,9.33
2023-05-01T03:23:30.976Z,8.37
2023-05-01T03:25:59.434Z,9.50
2023-05-01T03:28:27.383Z,9.30
2023-05-01T03:30:54.972Z,9.33
2023-05-01T03:33:22.826Z,8.53
2023-05-01T03:36:02.055Z,9.20
2023-05-01T03:38:33.149Z,8.60
2023-05-01T03:41:10.113Z,8.90
2023-05-01T03:44:00.740Z,8.63
2023-05-01T03:46:36.540Z,8.40
2023-05-01T03:49:06.347Z,9.23
2023-05-01T03:51:39.020Z,8.63
2023-05-01T03:54:07.233Z,8.83
2023-05-01T03:56:48.995Z,8.33
2023-05-01T03:59:20.326Z,8.97
2023-05-01T04:01:48.054Z,9.03
2023-05-01T04:04:15.791Z,8.43
2023-05-01T04:06:49.706Z,8.20
2023-05-01T04:09:18.066Z,9.23
2023-05-01T04:11:46.748Z,9.03
2023-05-01T04:14:14.485Z,8.10
2023-05-01T04:16:42.229Z,8.73
2023-05-01T04:19:10.717Z,7.97
2023-05-01T04:21:42.679Z,7.00
2023-05-01T04:24:10.373Z,6.93
2023-05-01T04:26:39.026Z,6.80
2023-05-01T04:29:07.445Z,6.07
2023-05-01T04:31:36.106Z,5.57
2023-05-01T04:34:03.930Z,6.17
2023-05-01T04:36:33.078Z,5.50
2023-05-01T04:39:00.920Z,6.00
2023-05-01T04:41:30.273Z,6.53
2023-05-01T04:43:58.065Z,6.23
2023-05-01T04:46:25.728Z,6.33
2023-05-01T04:48:54.391Z,7.50
2023-05-01T04:51:22.512Z,7.03
2023-05-01T04:53:51.201Z,6.20
2023-05-01T04:56:25.798Z,7.00
2023-05-01T04:58:57.368Z,6.20
2023-05-01T05:01:27.655Z,5.97
2023-05-01T05:03:55.659Z,6.47
2023-05-01T05:06:23.611Z,6.30
2023-05-01T05:08:52.103Z,6.77
2023-05-01T05:11:19.806Z,6.17
2023-05-01T05:13:58.725Z,6.30
2023-05-01T05:16:26.538Z,5.63
2023-05-01T05:18:57.468Z,6.50
2023-05-01T05:21:27.438Z,5.47
2023-05-01T05:23:57.781Z,5.83
2023-05-01T05:26:26.694Z,6.20
2023-05-01T05:28:55.832Z,6.13
2023-05-01T05:31:23.687Z,5.90
2023-05-01T05:33:51.809Z,6.13
2023-05-01T05:36:19.467Z,5.80
2023-05-01T05:38:47.302Z,6.10
2023-05-01T05:41:18.437Z,5.90
2023-05-01T05:43:50.242Z,5.83
2023-05-01T05:46:17.988Z,5.10
2023-05-01T05:48:45.743Z,5.60
2023-05-01T05:51:13.492Z,6.00
2023-05-01T05:53:41.127Z,6.47
2023-05-01T05:56:09.383Z,6.23
2023-05-01T05:58:39.973Z,5.97
2023-05-01T06:01:11.681Z,6.07
2023-05-01T06:03:40.472Z,6.03
2023-05-01T06:06:08.212Z,5.33
2023-05-01T06:08:40.041Z,5.33
2023-05-01T06:11:11.613Z,5.53
2023-05-01T06:13:39.667Z,5.60
2023-05-01T06:16:08.045Z,5.10
2023-05-01T06:18:35.873Z,5.10
2023-05-01T06:21:03.718Z,5.60
2023-05-01T06:23:33.886Z,5.63
2023-05-01T06:26:21.473Z,5.85
2023-05-01T06:28:49.314Z,5.32
2023-05-01T06:31:17.186Z,5.20
2023-05-01T06:33:50.524Z,4.85
2023-05-01T06:36:29.850Z,5.18
2023-05-01T06:39:00.161Z,4.90
2023-05-01T06:41:28.626Z,4.90
2023-05-01T06:43:56.345Z,5.30
2023-05-01T06:46:24.103Z,5.20
2023-05-01T06:48:51.783Z,5.50
2023-05-01T06:51:19.589Z,5.30
2023-05-01T06:53:47.249Z,5.35
2023-05-01T06:56:15.086Z,5.05
2023-05-01T06:58:42.710Z,5.25
2023-05-01T07:01:10.428Z,5.07
2023-05-01T07:03:38.519Z,4.72
2023-05-01T07:06:06.212Z,5.45
2023-05-01T07:08:33.863Z,4.93
2023-05-01T07:11:01.882Z,5.10
2023-05-01T07:13:29.507Z,5.40
2023-05-01T07:15:57.316Z,5.00
2023-05-01T07:18:24.977Z,5.22
2023-05-01T07:20:52.853Z,4.72
2023-05-01T07:23:20.613Z,5.43
2023-05-01T07:25:48.181Z,5.25
2023-05-01T07:28:17.981Z,5.72
2023-05-01T07:30:45.734Z,8.80
2023-05-01T07:33:13.480Z,5.00
2023-05-01T07:35:41.392Z,4.47
2023-05-01T07:38:09.108Z,5.40
2023-05-01T07:40:36.906Z,4.60
2023-05-01T07:43:05.056Z,4.22
2023-05-01T07:45:32.822Z,4.30
2023-05-01T07:48:00.708Z,4.22
2023-05-01T07:50:28.809Z,3.70
2023-05-01T07:52:57.364Z,3.63
2023-05-01T07:55:25.671Z,4.93
2023-05-01T07:57:53.256Z,4.38
2023-05-01T08:00:20.938Z,4.20
2023-05-01T08:02:48.737Z,3.80
2023-05-01T08:05:16.473Z,4.20
2023-05-01T08:07:44.950Z,4.00
2023-05-01T08:10:12.696Z,3.70
2023-05-01T08:12:40.416Z,3.42
2023-05-01T08:15:08.621Z,3.30
2023-05-01T08:17:36.982Z,2.95
2023-05-01T08:20:05.551Z,2.95
2023-05-01T08:22:34.163Z,3.50
2023-05-01T08:25:01.961Z,3.53
2023-05-01T08:27:31.335Z,3.58
2023-05-01T08:29:59.354Z,3.13
2023-05-01T08:32:27.059Z,3.65
2023-05-01T08:34:54.917Z,3.17
2023-05-01T08:37:22.590Z,3.65
2023-05-01T08:39:50.566Z,4.57
2023-05-01T08:42:18.668Z,3.85
2023-05-01T08:44:47.806Z,2.70
2023-05-01T08:47:18.356Z,3.25
2023-05-01T08:49:47.332Z,9.45
2023-05-01T08:52:15.581Z,3.70
2023-05-01T08:54:45.172Z,3.10
2023-05-01T08:57:13.618Z,3.28
2023-05-01T08:59:41.585Z,2.97
2023-05-01T09:02:10.482Z,2.90
2023-05-01T09:04:40.930Z,3.30
2023-05-01T09:07:10.155Z,2.85
2023-05-01T09:09:37.973Z,3.05
2023-05-01T09:12:27.747Z,2.90
2023-05-01T09:14:57.089Z,3.00
2023-05-01T09:17:25.159Z,3.00
2023-05-01T09:19:53.649Z,3.67
2023-05-01T09:22:21.638Z,2.83
2023-05-01T09:24:49.805Z,2.78
2023-05-01T09:27:17.596Z,3.30
2023-05-01T09:29:47.867Z,2.95
2023-05-01T09:32:29.935Z,3.10
2023-05-01T09:35:15.241Z,2.92
2023-05-01T09:37:44.565Z,3.25
2023-05-01T09:40:14.861Z,3.58
2023-05-01T09:42:53.656Z,3.67
2023-05-01T09:45:23.441Z,4.25
2023-05-01T09:47:51.182Z,3.58
2023-05-01T09:50:34.243Z,4.10
2023-05-01T09:53:05.033Z,4.63
2023-05-01T09:55:34.372Z,3.50
2023-05-01T09:58:02.573Z,3.40
2023-05-01T10:00:30.441Z,4.03
2023-05-01T10:02:58.477Z,4.07
2023-05-01T10:05:26.566Z,4.35
2023-05-01T10:08:03.516Z,3.85
2023-05-01T10:10:31.477Z,4.03
2023-05-01T10:13:17.320Z,3.28
2023-05-01T10:15:49.045Z,3.60
2023-05-01T10:18:18.260Z,4.10
2023-05-01T10:20:46.298Z,4.60
2023-05-01T10:23:14.542Z,4.07
2023-05-01T10:25:42.950Z,3.78
2023-05-01T10:28:12.497Z,3.22
2023-05-01T10:30:41.331Z,3.45
2023-05-01T10:33:09.122Z,4.00
2023-05-01T10:35:42.634Z,3.53
2023-05-01T10:38:26.768Z,3.60
2023-05-01T10:40:54.511Z,4.10
2023-05-01T10:43:26.011Z,3.08
2023-05-01T10:46:21.819Z,3.40
2023-05-01T10:48:49.565Z,3.50
2023-05-01T10:51:27.504Z,3.60
2023-05-01T10:54:21.202Z,3.63
2023-05-01T10:56:49.197Z,3.30
2023-05-01T10:59:16.959Z,3.38
2023-05-01T11:01:48.074Z,3.80
2023-05-01T11:04:22.020Z,4.50
2023-05-01T11:07:03.044Z,3.28
2023-05-01T11:09:47.188Z,4.05
2023-05-01T11:12:46.861Z,3.70
2023-05-01T11:15:33.343Z,3.58
2023-05-01T11:18:05.995Z,3.30
2023-05-01T11:20:36.942Z,3.30
2023-05-01T11:23:07.666Z,3.22
2023-05-01T11:25:38.133Z,3.67
2023-05-01T11:28:06.829Z,3.85
2023-05-01T11:30:40.728Z,3.30
2023-05-01T11:33:11.997Z,3.05
2023-05-01T11:35:40.012Z,4.35
2023-05-01T11:38:18.844Z,4.63
2023-05-01T11:40:56.263Z,4.25
2023-05-01T11:43:24.063Z,3.30
2023-05-01T11:46:02.300Z,3.65
2023-05-01T11:48:31.042Z,4.25
2023-05-01T11:50:58.812Z,4.32
2023-05-01T11:53:27.427Z,4.45
2023-05-01T11:55:55.677Z,3.83
2023-05-01T11:58:34.846Z,3.70
2023-05-01T12:01:03.323Z,3.60
2023-05-01T12:03:42.564Z,3.65
2023-05-01T12:06:13.865Z,3.88
2023-05-01T12:08:51.058Z,3.72
2023-05-01T12:11:20.640Z,3.88
2023-05-01T12:13:50.205Z,3.40
2023-05-01T12:16:18.392Z,3.67
2023-05-01T12:18:46.257Z,4.07
2023-05-01T12:21:20.069Z,3.85
2023-05-01T12:23:47.828Z,4.50
2023-05-01T12:26:25.253Z,4.28
2023-05-01T12:29:03.817Z,4.07
2023-05-01T12:31:32.426Z,3.33
2023-05-01T12:34:07.523Z,3.72
2023-05-01T12:36:37.427Z,5.10
2023-05-01T12:39:11.783Z,4.35
2023-05-01T12:41:42.563Z,4.45
2023-05-01T12:44:28.039Z,5.03
2023-05-01T12:47:01.917Z,5.55
2023-05-01T12:49:34.282Z,4.85
2023-05-01T12:52:03.715Z,4.28
2023-05-01T12:54:39.355Z,4.05
2023-05-01T12:57:11.870Z,4.05
2023-05-01T12:59:42.277Z,3.92
2023-05-01T13:02:15.858Z,4.07
2023-05-01T13:04:45.138Z,4.30
2023-05-01T13:07:18.081Z,4.50
2023-05-01T13:10:00.087Z,4.40
2023-05-01T13:12:29.626Z,4.65
2023-05-01T13:14:58.472Z,4.05
2023-05-01T13:17:32.661Z,3.72
2023-05-01T13:20:05.004Z,3.92
2023-05-01T13:22:38.986Z,3.97
2023-05-01T13:25:20.562Z,3.97
2023-05-01T13:27:53.315Z,4.40
2023-05-01T13:30:32.550Z,3.90
2023-05-01T13:33:01.847Z,4.70
2023-05-01T13:35:30.960Z,4.20
2023-05-01T13:37:58.744Z,3.75
2023-05-01T13:40:27.853Z,4.03
2023-05-01T13:42:55.758Z,3.95
2023-05-01T13:45:24.604Z,4.82
2023-05-01T13:47:52.589Z,4.05
2023-05-01T13:50:21.479Z,4.47
2023-05-01T13:52:49.176Z,4.45
2023-05-01T13:55:17.688Z,4.20
2023-05-01T13:57:45.418Z,4.05
2023-05-01T14:00:18.047Z,4.80
2023-05-01T14:02:48.699Z,4.88
2023-05-01T14:05:21.297Z,3.85
2023-05-01T14:07:58.353Z,5.43
2023-05-01T14:10:28.691Z,4.15
2023-05-01T14:12:59.432Z,3.55
2023-05-01T14:15:28.601Z,4.50
2023-05-01T14:18:02.854Z,4.15
2023-05-01T14:20:44.451Z,3.88
2023-05-01T14:23:14.006Z,5.00
2023-05-01T14:25:41.810Z,4.15
2023-05-01T14:28:09.392Z,3.78
2023-05-01T14:30:38.947Z,3.80
2023-05-01T14:33:12.980Z,3.97
2023-05-01T14:35:58.711Z,3.80
2023-05-01T14:38:27.540Z,4.07
2023-05-01T14:40:55.223Z,4.15
2023-05-01T14:43:22.887Z,4.03
2023-05-01T14:45:50.768Z,3.70
2023-05-01T14:48:23.643Z,3.80
2023-05-01T14:50:52.330Z,3.58
2023-05-01T14:53:20.081Z,3.53
2023-05-01T14:55:51.517Z,3.60
2023-05-01T14:58:19.206Z,3.80
2023-05-01T15:00:46.894Z,3.58
2023-05-01T15:03:14.676Z,3.75
2023-05-01T15:05:42.397Z,3.75
2023-05-01T15:08:10.204Z,3.85
2023-05-01T15:10:38.702Z,3.42
2023-05-01T15:13:06.670Z,4.43
2023-05-01T15:15:34.340Z,3.63
2023-05-01T15:18:04.007Z,4.60
2023-05-01T15:20:31.914Z,3.15
2023-05-01T15:22:59.523Z,3.78
2023-05-01T15:25:27.357Z,3.58
2023-05-01T15:27:55.424Z,3.85
2023-05-01T15:30:23.299Z,3.80
2023-05-01T15:32:51.869Z,4.30
2023-05-01T15:35:21.418Z,3.75
2023-05-01T15:37:49.639Z,3.60
2023-05-01T15:40:17.624Z,3.88
2023-05-01T15:42:47.904Z,4.38
2023-05-01T15:45:15.752Z,4.15
2023-05-01T15:47:43.440Z,3.92
2023-05-01T15:50:14.590Z,4.22
2023-05-01T15:52:42.280Z,4.15
2023-05-01T15:55:10.069Z,4.35
2023-05-01T15:57:37.686Z,4.07
2023-05-01T16:00:06.558Z,4.30
2023-05-01T16:02:34.258Z,5.38
2023-05-01T16:05:02.053Z,4.57
2023-05-01T16:07:29.826Z,4.15
2023-05-01T16:10:05.661Z,4.32
2023-05-01T16:12:33.505Z,5.28
2023-05-01T16:15:14.757Z,5.25
2023-05-01T16:17:46.512Z,4.18
2023-05-01T16:20:17.003Z,4.72
2023-05-01T16:22:44.943Z,4.40
2023-05-01T16:25:13.780Z,4.28
2023-05-01T16:27:44.802Z,4.35
2023-05-01T16:30:16.853Z,4.57
2023-05-01T16:32:46.067Z,4.10
2023-05-01T16:35:18.302Z,4.65
2023-05-01T16:37:46.063Z,4.07
2023-05-01T16:40:18.058Z,4.93
2023-05-01T16:42:54.165Z,5.13
2023-05-01T16:45:22.302Z,4.32
2023-05-01T16:47:50.005Z,4.63
2023-05-01T16:50:19.248Z,4.82
2023-05-01T16:52:46.872Z,5.43
2023-05-01T16:55:14.909Z,4.55
2023-05-01T16:57:44.256Z,4.25
2023-05-01T17:00:16.476Z,5.38
2023-05-01T17:02:49.967Z,4.10
2023-05-01T17:05:18.633Z,4.28
2023-05-01T17:07:46.601Z,3.88
2023-05-01T17:10:17.996Z,4.30
2023-05-01T17:12:45.711Z,3.92
2023-05-01T17:15:13.542Z,3.60
2023-05-01T17:17:41.296Z,3.75
2023-05-01T17:20:10.101Z,5.45
2023-05-01T17:22:38.027Z,8.52
2023-05-01T17:25:06.622Z,4.15
2023-05-01T17:27:34.688Z,4.03
2023-05-01T17:30:02.586Z,4.03
2023-05-01T17:32:37.123Z,4.50
2023-05-01T17:35:08.533Z,4.30
2023-05-01T17:37:39.700Z,4.50
2023-05-01T17:40:10.956Z,4.35
2023-05-01T17:42:39.564Z,4.25
2023-05-01T17:45:10.192Z,4.22
2023-05-01T17:47:42.769Z,4.57
2023-05-01T17:50:13.568Z,4.60
2023-05-01T17:52:49.974Z,4.60
2023-05-01T17:55:18.388Z,4.10
2023-05-01T17:57:47.572Z,4.45
2023-05-01T18:00:16.251Z,4.18
2023-05-01T18:02:44.887Z,4.15
2023-05-01T18:05:16.404Z,4.22
2023-05-01T18:07:44.248Z,4.93
2023-05-01T18:10:12.079Z,4.90
2023-05-01T18:12:40.047Z,4.53
2023-05-01T18:15:08.476Z,4.55
2023-05-01T18:17:36.370Z,4.90
2023-05-01T18:20:04.220Z,4.82
2023-05-01T18:22:32.883Z,5.00
2023-05-01T18:25:00.833Z,5.40
2023-05-01T18:27:28.604Z,5.65
2023-05-01T18:29:56.769Z,5.90
2023-05-01T18:32:39.309Z,5.82
2023-05-01T18:35:15.484Z,5.18
2023-05-01T18:37:43.826Z,5.03
2023-05-01T18:40:12.802Z,5.93
2023-05-01T18:42:41.952Z,5.70
2023-05-01T18:45:10.199Z,5.18
2023-05-01T18:47:38.222Z,5.65
2023-05-01T18:50:07.296Z,5.00
2023-05-01T18:52:37.055Z,5.68
2023-05-01T18:55:05.753Z,5.68
2023-05-01T18:57:33.500Z,6.40
2023-05-01T19:00:01.808Z,6.28
2023-05-01T19:02:29.664Z,6.10
2023-05-01T19:04:58.369Z,5.00
2023-05-01T19:07:26.803Z,6.07
2023-05-01T19:09:54.621Z,6.07
2023-05-01T19:12:22.253Z,5.28
2023-05-01T19:14:49.940Z,6.20
2023-05-01T19:17:19.013Z,5.65
2023-05-01T19:19:46.921Z,6.25
2023-05-01T19:22:14.613Z,6.35
2023-05-01T19:24:42.301Z,6.05
2023-05-01T19:27:15.867Z,6.35
2023-05-01T19:29:44.737Z,5.57
2023-05-01T19:32:12.870Z,5.95
2023-05-01T19:34:40.523Z,6.38
2023-05-01T19:37:08.335Z,6.05
2023-05-01T19:39:36.034Z,5.38
2023-05-01T19:42:03.793Z,5.78
2023-05-01T19:44:31.499Z,6.72
2023-05-01T19:46:59.223Z,6.22
2023-05-01T19:49:26.939Z,6.22
2023-05-01T19:51:54.653Z,6.75
2023-05-01T19:54:23.117Z,6.20
2023-05-01T19:56:59.481Z,6.13
2023-05-01T19:59:27.202Z,5.68
2023-05-01T20:01:55.145Z,5.90
2023-05-01T20:04:24.123Z,6.38
2023-05-01T20:06:52.137Z,5.53
2023-05-01T20:09:19.966Z,5.65
2023-05-01T20:11:47.627Z,5.30
2023-05-01T20:14:15.318Z,5.07
2023-05-01T20:16:42.998Z,5.75
2023-05-01T20:19:10.870Z,5.50
2023-05-01T20:21:38.448Z,5.68
2023-05-01T20:24:06.155Z,6.38
2023-05-01T20:26:33.818Z,6.45
2023-05-01T20:29:01.554Z,5.93
2023-05-01T20:31:29.295Z,6.72
2023-05-01T20:33:56.975Z,5.75
2023-05-01T20:36:25.548Z,5.50
2023-05-01T20:38:53.761Z,5.15
2023-05-01T20:41:21.730Z,5.72
2023-05-01T20:43:49.428Z,6.03
2023-05-01T20:46:17.152Z,5.30
2023-05-01T20:48:45.899Z,5.35
2023-05-01T20:51:15.779Z,5.85
2023-05-01T20:53:43.447Z,8.27
2023-05-01T20:56:11.223Z,8.73
2023-05-01T20:58:38.886Z,5.90
2023-05-01T21:01:09.892Z,5.68
2023-05-01T21:03:38.141Z,5.80
2023-05-01T21:06:06.009Z,6.28
2023-05-01T21:08:33.937Z,5.68
2023-05-01T21:11:02.416Z,5.53
2023-05-01T21:13:32.127Z,6.32
2023-05-01T21:16:00.853Z,5.85
2023-05-01T21:18:33.310Z,5.53
2023-05-01T21:21:02.417Z,5.75
2023-05-01T21:23:30.786Z,5.22
2023-05-01T21:25:58.558Z,5.72
2023-05-01T21:28:29.373Z,5.47
2023-05-01T21:30:57.126Z,5.63
2023-05-01T21:33:25.055Z,5.70
2023-05-01T21:35:52.760Z,5.75
2023-05-01T21:38:20.412Z,6.28
2023-05-01T21:40:48.134Z,5.05
2023-05-01T21:43:16.273Z,5.30
2023-05-01T21:45:44.615Z,5.88
2023-05-01T21:48:16.139Z,5.70
2023-05-01T21:50:47.789Z,5.53
2023-05-01T21:53:16.407Z,5.82
2023-05-01T21:55:48.786Z,6.10
2023-05-01T21:58:16.504Z,5.70
2023-05-01T22:00:46.233Z,5.75
2023-05-01T22:03:18.121Z,5.07
2023-05-01T22:05:46.264Z,5.50
2023-05-01T22:08:13.868Z,5.50
2023-05-01T22:10:42.825Z,6.60
2023-05-01T22:13:11.400Z,6.32
2023-05-01T22:15:39.420Z,5.38
2023-05-01T22:18:07.054Z,5.70
2023-05-01T22:20:34.664Z,6.47
2023-05-01T22:23:02.245Z,6.20
2023-05-01T22:25:29.870Z,6.35
2023-05-01T22:27:57.830Z,6.22
2023-05-01T22:30:25.445Z,5.88
2023-05-01T22:32:53.096Z,6.53
2023-05-01T22:35:20.764Z,6.15
2023-05-01T22:37:48.356Z,6.45
2023-05-01T22:40:16.241Z,5.97
2023-05-01T22:42:43.821Z,6.50
2023-05-01T22:45:11.541Z,6.43
2023-05-01T22:47:39.182Z,6.20
2023-05-01T22:50:07.466Z,6.38
2023-05-01T22:52:35.278Z,6.50
2023-05-01T22:55:03.023Z,6.63
2023-05-01T22:57:30.879Z,6.38
2023-05-01T22:59:58.611Z,6.82
2023-05-01T23:02:26.710Z,6.35
2023-05-01T23:04:54.501Z,5.82
2023-05-01T23:07:22.234Z,6.20
2023-05-01T23:09:49.932Z,6.25
2023-05-01T23:12:22.710Z,6.20
2023-05-01T23:14:50.551Z,5.95
2023-05-01T23:17:18.321Z,6.25
2023-05-01T23:19:46.112Z,6.03
2023-05-01T23:22:14.069Z,5.70
2023-05-01T23:24:48.375Z,6.32
2023-05-01T23:27:19.987Z,6.45
2023-05-01T23:29:59.031Z,6.47
2023-05-01T23:32:31.748Z,6.15
2023-05-01T23:35:23.819Z,5.90
2023-05-01T23:37:52.952Z,6.78
2023-05-01T23:40:20.803Z,6.70
2023-05-01T23:42:49.056Z,6.30
2023-05-01T23:45:17.007Z,5.80
2023-05-01T23:47:44.673Z,6.05
2023-05-01T23:50:12.474Z,5.55
2023-05-01T23:52:40.325Z,5.00
2023-05-01T23:55:08.189Z,5.45
2023-05-01T23:57:35.753Z,5.68
